Time;durP1;ratioP1;P1;durP2;ratioP2;P2;SDS_P1;SDS_P2;PMS_P1;PMS_P2;Temp;Humidity;BMP_temperature;BMP_pressure;BME280_temperature;BME280_humidity;BME280_pressure;Samples;Min_cycle;Max_cycle;Signal;HPM_P1;HPM_P2
2021/12/01 00:00:14;;;;;;;14.30;2.20;;;9.80;99.90;;;;;;5093593;28;20103;-74
2021/12/01 00:02:40;;;;;;;12.07;1.52;;;9.80;99.90;;;;;;5093102;28;20468;-75
2021/12/01 00:05:08;;;;;;;9.55;1.80;;;9.80;99.90;;;;;;5093003;28;20046;-74
2021/12/01 00:07:38;;;;;;;8.23;2.05;;;9.80;99.90;;;;;;5092908;28;20024;-74
2021/12/01 00:10:07;;;;;;;10.57;1.70;;;9.80;99.90;;;;;;5093299;28;20100;-74
2021/12/01 00:12:36;;;;;;;10.27;1.60;;;9.80;99.90;;;;;;5092865;28;20085;-74
2021/12/01 00:15:04;;;;;;;;;;;9.80;99.90;;;;;;5093029;28;20036;-76
2021/12/01 00:17:31;;;;;;;8.30;1.88;;;9.80;99.90;;;;;;5091349;28;19904;-74
2021/12/01 00:19:59;;;;;;;11.45;1.65;;;9.70;99.90;;;;;;5092638;28;20028;-75
2021/12/01 00:22:26;;;;;;;8.60;1.63;;;9.70;99.90;;;;;;5092746;28;20110;-75
2021/12/01 00:24:52;;;;;;;;;;;9.60;99.90;;;;;;5093071;28;20047;-74
2021/12/01 00:27:18;;;;;;;14.30;2.03;;;9.60;99.90;;;;;;5092652;28;19995;-74
2021/12/01 00:29:44;;;;;;;9.38;1.73;;;9.60;99.90;;;;;;5092869;28;20167;-74
2021/12/01 00:32:10;;;;;;;10.77;1.53;;;9.60;99.90;;;;;;5092534;28;20089;-74
2021/12/01 00:34:38;;;;;;;9.77;1.55;;;9.60;99.90;;;;;;5092500;28;20262;-74
2021/12/01 00:37:05;;;;;;;9.70;2.00;;;9.70;99.90;;;;;;5092493;28;20031;-74
2021/12/01 00:39:32;;;;;;;6.25;2.28;;;9.70;99.90;;;;;;5092607;28;20031;-74
2021/12/01 00:42:00;;;;;;;;;;;9.80;99.90;;;;;;5092764;28;20046;-74
2021/12/01 00:44:29;;;;;;;9.00;1.63;;;9.90;99.90;;;;;;5092242;28;20014;-73
2021/12/01 00:49:31;;;;;;;10.02;1.80;;;9.80;99.90;;;;;;5092176;28;20439;-74
2021/12/01 00:51:59;;;;;;;10.43;1.70;;;9.80;99.90;;;;;;5092107;28;20535;-74
2021/12/01 00:54:26;;;;;;;9.05;1.55;;;9.70;99.90;;;;;;5092169;28;20047;-74
2021/12/01 00:56:53;;;;;;;7.03;2.10;;;9.70;99.90;;;;;;5091746;28;20047;-74
2021/12/01 00:59:19;;;;;;;8.90;1.52;;;9.70;99.90;;;;;;5092080;28;20036;-74
2021/12/01 01:01:48;;;;;;;15.50;2.25;;;9.70;99.90;;;;;;5091985;28;20039;-73
2021/12/01 01:04:15;;;;;;;9.80;2.05;;;9.70;99.90;;;;;;5091834;28;20083;-74
2021/12/01 01:07:02;;;;;;;7.80;1.77;;;9.60;99.90;;;;;;5090305;28;20096;-74
2021/12/01 01:09:32;;;;;;;7.90;1.50;;;9.70;99.90;;;;;;5091778;28;20315;-73
2021/12/01 01:17:38;;;;;;;8.00;1.60;;;9.70;99.90;;;;;;5091655;28;20089;-74
2021/12/01 01:20:11;;;;;;;7.47;1.38;;;9.60;99.90;;;;;;5092205;28;20042;-74
2021/12/01 01:22:42;;;;;;;14.55;1.80;;;9.60;99.90;;;;;;5091679;28;20024;-74
2021/12/01 01:25:10;;;;;;;5.28;1.10;;;9.60;99.90;;;;;;5091619;28;20086;-74
2021/12/01 01:27:36;;;;;;;7.63;1.45;;;9.60;99.90;;;;;;5091717;28;20032;-74
2021/12/01 01:30:24;;;;;;;9.95;1.55;;;9.60;99.90;;;;;;5090053;28;20476;-74
2021/12/01 01:32:52;;;;;;;11.15;1.80;;;9.60;99.90;;;;;;5091399;28;20345;-74
2021/12/01 01:35:18;;;;;;;6.75;1.52;;;9.60;99.90;;;;;;5091405;28;20024;-74
2021/12/01 01:37:45;;;;;;;7.75;1.20;;;9.60;99.90;;;;;;5090055;28;20028;-74
2021/12/01 01:40:12;;;;;;;12.55;1.65;;;9.70;99.90;;;;;;5091421;28;20024;-74
2021/12/01 01:42:38;;;;;;;9.45;1.60;;;9.70;99.90;;;;;;5091287;28;20021;-74
2021/12/01 01:45:05;;;;;;;8.83;1.63;;;9.80;99.90;;;;;;5089943;28;20112;-74
2021/12/01 01:47:31;;;;;;;;;;;9.80;99.90;;;;;;5090364;28;20173;-74
2021/12/01 01:50:02;;;;;;;10.83;1.27;;;9.80;99.90;;;;;;5091447;28;19994;-74
2021/12/01 01:52:29;;;;;;;11.13;1.33;;;9.80;99.90;;;;;;5091662;28;20032;-74
2021/12/01 01:54:55;;;;;;;6.93;1.33;;;9.80;99.90;;;;;;5095696;28;20042;-74
2021/12/01 01:57:21;;;;;;;8.68;1.42;;;9.80;99.90;;;;;;5095401;28;20032;-74
2021/12/01 01:59:48;;;;;;;5.87;1.37;;;9.80;99.90;;;;;;5094878;28;20399;-74
2021/12/01 02:02:14;;;;;;;5.93;1.40;;;9.80;99.90;;;;;;5095783;28;20104;-74
2021/12/01 02:04:41;;;;;;;6.72;1.30;;;9.80;99.90;;;;;;5095312;28;20032;-73
2021/12/01 02:07:07;;;;;;;;;;;9.80;99.90;;;;;;5095655;28;20035;-74
2021/12/01 02:09:34;;;;;;;6.13;1.20;;;9.70;99.90;;;;;;5095550;28;19957;-74
2021/12/01 02:12:02;;;;;;;5.15;1.27;;;9.80;99.90;;;;;;5076912;28;20379;-74
2021/12/01 02:14:33;;;;;;;9.40;2.00;;;9.80;99.90;;;;;;5093699;28;20040;-75
2021/12/01 02:16:59;;;;;;;7.47;1.45;;;9.90;99.90;;;;;;5095319;28;20092;-73
2021/12/01 02:19:27;;;;;;;;;;;10.00;99.90;;;;;;5095402;28;20032;-74
2021/12/01 02:21:54;;;;;;;9.98;1.73;;;9.90;99.90;;;;;;5093688;28;20267;-74
2021/12/01 02:24:24;;;;;;;6.70;1.33;;;10.00;99.90;;;;;;5094870;28;20040;-73
2021/12/01 02:26:53;;;;;;;5.90;1.23;;;10.00;99.90;;;;;;5093546;28;20028;-74
2021/12/01 02:29:24;;;;;;;8.10;1.20;;;10.10;99.90;;;;;;5095034;28;20545;-74
2021/12/01 02:31:51;;;;;;;9.77;1.30;;;10.10;99.90;;;;;;5094822;28;20503;-74
2021/12/01 02:34:20;;;;;;;9.20;1.33;;;10.10;99.90;;;;;;5095183;28;20047;-73
2021/12/01 02:36:57;;;;;;;13.57;2.17;;;10.10;99.90;;;;;;5094688;28;20442;-74
2021/12/01 02:39:27;;;;;;;7.35;1.45;;;10.20;99.90;;;;;;5095003;28;20028;-74
2021/12/01 02:42:00;;;;;;;8.45;1.38;;;10.20;99.80;;;;;;5094567;28;20024;-74
2021/12/01 02:44:35;;;;;;;7.82;1.35;;;10.30;99.60;;;;;;5075937;28;20515;-74
2021/12/01 02:47:02;;;;;;;11.23;2.33;;;10.40;99.80;;;;;;5093636;28;20031;-74
2021/12/01 02:49:29;;;;;;;8.45;1.38;;;10.30;99.90;;;;;;5094465;28;20112;-74
2021/12/01 02:51:56;;;;;;;10.98;1.65;;;10.40;99.80;;;;;;5094634;28;20020;-74
2021/12/01 02:54:26;;;;;;;6.45;1.58;;;10.40;99.90;;;;;;5094827;28;20035;-74
2021/12/01 02:56:54;;;;;;;10.82;1.70;;;10.40;99.90;;;;;;5094542;28;20052;-74
2021/12/01 02:59:21;;;;;;;7.85;1.33;;;10.40;99.90;;;;;;5094304;28;20099;-74
2021/12/01 03:01:47;;;;;;;6.00;1.27;;;10.40;99.90;;;;;;5092801;28;20073;-74
2021/12/01 03:04:14;;;;;;;8.90;1.42;;;10.40;99.90;;;;;;5092134;28;20028;-74
2021/12/01 03:06:44;;;;;;;8.85;1.25;;;10.40;99.90;;;;;;5093740;28;20028;-74
2021/12/01 03:09:12;;;;;;;6.90;1.15;;;10.40;99.90;;;;;;5094592;28;20027;-74
2021/12/01 03:11:38;;;;;;;9.48;1.40;;;10.40;99.90;;;;;;5094059;28;20099;-74
2021/12/01 03:14:14;;;;;;;6.20;1.20;;;10.40;99.90;;;;;;5093947;28;20104;-74
2021/12/01 03:16:40;;;;;;;9.50;1.55;;;10.40;99.90;;;;;;5094379;28;20519;-74
2021/12/01 03:19:06;;;;;;;8.57;1.80;;;10.40;99.90;;;;;;5093913;28;20077;-74
2021/12/01 03:21:37;;;;;;;5.43;1.20;;;10.40;99.90;;;;;;5093687;28;20028;-73
2021/12/01 03:24:04;;;;;;;9.38;1.50;;;10.40;99.90;;;;;;5094071;28;20473;-73
2021/12/01 03:26:31;;;;;;;8.02;1.25;;;10.40;99.90;;;;;;5093572;28;20016;-74
2021/12/01 03:28:58;;;;;;;7.40;1.30;;;10.30;99.90;;;;;;5093374;28;20047;-73
2021/12/01 03:31:24;;;;;;;7.45;1.25;;;10.40;99.90;;;;;;5093566;28;20440;-73
2021/12/01 03:33:50;;;;;;;10.55;1.65;;;10.40;99.90;;;;;;5093508;28;20052;-75
2021/12/01 03:36:18;;;;;;;9.57;1.33;;;10.40;99.90;;;;;;5093463;28;20085;-74
2021/12/01 03:38:43;;;;;;;;;;;10.40;99.90;;;;;;5093749;28;20464;-74
2021/12/01 03:41:09;;;;;;;11.80;1.33;;;10.50;99.90;;;;;;5091973;28;19912;-75
2021/12/01 03:43:35;;;;;;;11.10;1.60;;;10.50;99.90;;;;;;5093437;28;20032;-75
2021/12/01 03:46:02;;;;;;;15.70;2.28;;;10.50;99.90;;;;;;5093249;28;20104;-74
2021/12/01 03:48:29;;;;;;;7.43;1.05;;;10.40;99.90;;;;;;5092677;28;20024;-74
2021/12/01 03:50:56;;;;;;;5.13;1.10;;;10.40;99.90;;;;;;5092555;28;20024;-75
2021/12/01 03:53:22;;;;;;;;;;;10.40;99.90;;;;;;5092632;28;20035;-74
2021/12/01 03:55:49;;;;;;;11.25;2.05;;;10.40;99.90;;;;;;5092488;28;19955;-74
2021/12/01 03:58:15;;;;;;;12.45;1.50;;;10.30;99.90;;;;;;5092632;28;20035;-75
2021/12/01 04:00:42;;;;;;;8.38;1.23;;;10.30;99.90;;;;;;5093498;28;20103;-75
2021/12/01 04:03:08;;;;;;;15.77;1.45;;;10.30;99.90;;;;;;5093295;28;20032;-74
2021/12/01 04:05:35;;;;;;;8.63;1.48;;;10.30;99.90;;;;;;5093528;28;20020;-74
2021/12/01 04:08:03;;;;;;;10.15;1.48;;;10.30;99.90;;;;;;5094155;28;20360;-74
2021/12/01 04:10:30;;;;;;;5.80;1.48;;;10.20;99.90;;;;;;5093657;28;20503;-74
2021/12/01 04:12:56;;;;;;;18.27;1.90;;;10.20;99.90;;;;;;5094052;28;20063;-75
2021/12/01 04:15:23;;;;;;;8.20;1.20;;;10.20;99.90;;;;;;5093815;28;20020;-75
2021/12/01 04:17:49;;;;;;;;;;;10.20;99.90;;;;;;5093665;28;20092;-75
2021/12/01 04:20:18;;;;;;;15.63;2.37;;;10.20;99.90;;;;;;5093635;28;19990;-75
2021/12/01 04:22:45;;;;;;;11.15;1.58;;;10.20;99.90;;;;;;5093602;28;20023;-74
2021/12/01 04:25:11;;;;;;;;;;;10.20;99.90;;;;;;5095032;28;20169;-74
2021/12/01 04:27:39;;;;;;;13.00;1.40;;;10.20;99.90;;;;;;5094230;28;20374;-75
2021/12/01 04:30:09;;;;;;;8.55;1.25;;;10.20;99.90;;;;;;5094591;28;20031;-74
2021/12/01 04:32:36;;;;;;;7.88;1.30;;;10.10;99.90;;;;;;5092514;28;20109;-75
2021/12/01 04:35:03;;;;;;;7.10;1.65;;;10.20;99.90;;;;;;5093115;28;20056;-74
2021/12/01 04:37:29;;;;;;;10.63;1.27;;;10.20;99.90;;;;;;5094208;28;20439;-74
2021/12/01 04:39:55;;;;;;;7.82;1.27;;;10.20;99.90;;;;;;5094463;28;20028;-75
2021/12/01 04:42:24;;;;;;;10.85;1.35;;;10.20;99.90;;;;;;5093911;28;20067;-75
2021/12/01 04:44:51;;;;;;;9.23;1.42;;;10.20;99.90;;;;;;5093993;28;20033;-74
2021/12/01 04:47:26;;;;;;;15.63;1.40;;;10.10;99.90;;;;;;5093980;28;20333;-74
2021/12/01 04:49:53;;;;;;;9.45;1.65;;;10.10;99.90;;;;;;5093734;28;20095;-75
2021/12/01 04:52:19;;;;;;;8.82;1.27;;;10.10;99.90;;;;;;5094623;28;20028;-74
2021/12/01 04:54:45;;;;;;;10.70;1.58;;;10.10;99.90;;;;;;5093648;28;20024;-74
2021/12/01 04:57:11;;;;;;;10.30;1.48;;;10.10;99.90;;;;;;5093634;28;20024;-75
2021/12/01 04:59:37;;;;;;;9.07;1.03;;;10.20;99.90;;;;;;5093643;28;20032;-75
2021/12/01 05:02:04;;;;;;;7.60;1.50;;;10.20;99.90;;;;;;5094073;28;20261;-75
2021/12/01 05:04:31;;;;;;;8.32;1.48;;;10.20;99.90;;;;;;5093392;28;20028;-75
2021/12/01 05:06:59;;;;;;;12.27;1.98;;;10.20;99.90;;;;;;5092125;28;20028;-75
2021/12/01 05:09:27;;;;;;;8.95;1.50;;;10.20;99.90;;;;;;5093676;28;20065;-75
2021/12/01 05:11:53;;;;;;;10.65;1.90;;;10.20;99.90;;;;;;5093347;28;20039;-74
2021/12/01 05:14:20;;;;;;;9.43;1.50;;;10.10;99.90;;;;;;5093313;28;20472;-74
2021/12/01 05:16:46;;;;;;;;;;;10.20;99.90;;;;;;5092349;28;20590;-76
2021/12/01 05:19:15;;;;;;;10.63;1.52;;;10.10;99.90;;;;;;5093745;28;19939;-74
2021/12/01 05:21:45;;;;;;;11.90;1.95;;;10.10;99.90;;;;;;5093367;28;20024;-74
2021/12/01 05:24:12;;;;;;;7.28;1.67;;;10.10;99.90;;;;;;5093208;28;20479;-75
2021/12/01 05:26:38;;;;;;;;;;;10.00;99.90;;;;;;5093389;28;20055;-75
2021/12/01 05:29:06;;;;;;;8.55;1.50;;;10.00;99.90;;;;;;5092992;28;19910;-75
2021/12/01 05:31:35;;;;;;;8.27;1.70;;;10.00;99.90;;;;;;5093256;28;20020;-74
2021/12/01 05:34:01;;;;;;;8.38;1.83;;;10.00;99.90;;;;;;5093068;28;20055;-74
2021/12/01 05:36:27;;;;;;;9.33;1.50;;;10.00;99.90;;;;;;5093222;28;20021;-74
2021/12/01 05:38:54;;;;;;;12.03;1.80;;;10.10;99.90;;;;;;5091869;28;20537;-74
2021/12/01 05:41:20;;;;;;;9.20;2.03;;;10.10;99.90;;;;;;5093154;28;20515;-73
2021/12/01 05:43:46;;;;;;;5.68;1.30;;;10.10;99.90;;;;;;5093037;28;20036;-72
2021/12/01 05:46:12;;;;;;;10.13;1.43;;;10.10;99.90;;;;;;5093333;28;20122;-74
2021/12/01 05:48:39;;;;;;;11.23;1.70;;;10.10;99.90;;;;;;5091999;28;20028;-73
2021/12/01 05:51:05;;;;;;;9.70;1.60;;;10.20;99.90;;;;;;5093535;28;20777;-74
2021/12/01 05:53:31;;;;;;;10.93;2.00;;;10.20;99.90;;;;;;5093454;28;20297;-74
2021/12/01 05:55:57;;;;;;;7.47;1.30;;;10.20;99.90;;;;;;5093548;28;20110;-74
2021/12/01 05:58:24;;;;;;;8.05;1.98;;;10.30;99.90;;;;;;5092945;28;20528;-74
2021/12/01 06:00:50;;;;;;;;;;;10.20;99.90;;;;;;5093166;28;20059;-74
2021/12/01 06:03:16;;;;;;;8.83;1.40;;;10.20;99.90;;;;;;5092928;28;19970;-74
2021/12/01 06:05:43;;;;;;;7.82;1.30;;;10.30;99.90;;;;;;5092594;28;20064;-73
2021/12/01 06:08:10;;;;;;;12.48;1.92;;;10.20;99.90;;;;;;5091823;28;20020;-74
2021/12/01 06:10:39;;;;;;;;;;;10.20;99.90;;;;;;5093277;28;20055;-72
2021/12/01 06:13:05;;;;;;;13.05;2.40;;;10.20;99.90;;;;;;5090906;28;19938;-72
2021/12/01 06:15:33;;;;;;;6.68;1.40;;;10.20;99.90;;;;;;5092432;28;20041;-73
2021/12/01 06:18:00;;;;;;;13.35;1.40;;;10.30;99.90;;;;;;5092750;28;20388;-73
2021/12/01 06:20:28;;;;;;;9.65;1.95;;;10.20;99.90;;;;;;5091817;28;20024;-74
2021/12/01 06:22:55;;;;;;;7.50;1.35;;;10.30;99.90;;;;;;5091823;28;20038;-73
2021/12/01 06:25:22;;;;;;;11.65;1.48;;;10.50;99.90;;;;;;5091210;28;20030;-72
2021/12/01 06:27:48;;;;;;;10.88;1.65;;;10.50;99.90;;;;;;5092005;28;20020;-72
2021/12/01 06:30:15;;;;;;;8.80;2.07;;;10.50;99.90;;;;;;5091815;28;20108;-72
2021/12/01 06:32:41;;;;;;;7.53;1.58;;;10.50;99.90;;;;;;5091642;28;20066;-71
2021/12/01 06:35:08;;;;;;;11.82;1.85;;;10.60;99.90;;;;;;5091695;28;20476;-72
2021/12/01 06:37:34;;;;;;;10.15;1.67;;;10.50;99.90;;;;;;5091666;28;20020;-72
2021/12/01 06:40:00;;;;;;;6.45;1.30;;;10.50;99.90;;;;;;5093944;28;20070;-71
2021/12/01 06:42:26;;;;;;;10.13;2.07;;;10.60;99.90;;;;;;5093725;28;20020;-72
2021/12/01 06:44:52;;;;;;;8.20;1.53;;;10.60;99.90;;;;;;5093955;28;20074;-72
2021/12/01 06:47:18;;;;;;;8.55;1.63;;;10.60;99.90;;;;;;5094606;28;20417;-71
2021/12/01 06:49:47;;;;;;;12.67;2.13;;;10.60;99.90;;;;;;5094081;28;20028;-73
2021/12/01 06:52:15;;;;;;;14.02;2.17;;;10.60;99.90;;;;;;5093686;28;20032;-73
2021/12/01 06:54:42;;;;;;;10.02;1.50;;;10.70;99.90;;;;;;5092619;28;20421;-71
2021/12/01 06:57:09;;;;;;;10.27;1.52;;;10.70;99.90;;;;;;5094132;28;20026;-71
2021/12/01 06:59:36;;;;;;;6.40;1.50;;;10.80;99.90;;;;;;5092478;28;20507;-74
2021/12/01 07:02:02;;;;;;;11.03;1.93;;;10.90;99.90;;;;;;5093619;28;20020;-73
2021/12/01 07:04:30;;;;;;;9.25;1.60;;;10.80;99.90;;;;;;5093996;28;20464;-75
2021/12/01 07:06:58;;;;;;;7.90;1.90;;;10.80;99.90;;;;;;5092445;28;20032;-75
2021/12/01 07:09:28;;;;;;;7.45;1.52;;;10.90;99.90;;;;;;5093434;28;20039;-74
2021/12/01 07:11:55;;;;;;;11.85;3.03;;;11.00;99.90;;;;;;5092985;28;20012;-73
2021/12/01 07:14:22;;;;;;;8.98;1.70;;;11.00;99.90;;;;;;5093387;28;20093;-72
2021/12/01 07:16:50;;;;;;;8.43;1.55;;;11.10;99.90;;;;;;5094450;28;20032;-75
2021/12/01 07:19:18;;;;;;;7.53;1.70;;;11.20;99.90;;;;;;5094607;28;20047;-75
2021/12/01 07:21:45;;;;;;;5.95;1.45;;;11.20;99.90;;;;;;5094647;28;20051;-77
2021/12/01 07:24:16;;;;;;;14.40;2.22;;;11.30;99.90;;;;;;5092993;28;20092;-77
2021/12/01 07:26:43;;;;;;;14.35;1.90;;;11.30;99.90;;;;;;5094287;28;20032;-77
2021/12/01 07:29:09;;;;;;;12.55;1.73;;;11.40;99.90;;;;;;5093982;28;20042;-77
2021/12/01 07:31:35;;;;;;;9.83;1.40;;;11.50;99.90;;;;;;5093755;28;20020;-76
2021/12/01 07:34:02;;;;;;;16.73;2.10;;;11.40;99.90;;;;;;5093504;28;20063;-76
2021/12/01 07:36:29;;;;;;;10.57;2.40;;;11.50;99.90;;;;;;5093985;28;20344;-76
2021/12/01 07:38:58;;;;;;;10.75;1.85;;;11.50;99.90;;;;;;5094071;28;20467;-78
2021/12/01 07:41:29;;;;;;;14.50;2.40;;;11.50;99.90;;;;;;5094157;28;20023;-79
2021/12/01 07:43:55;;;;;;;9.27;1.83;;;11.60;99.90;;;;;;5094565;28;20047;-73
2021/12/01 07:46:21;;;;;;;8.18;1.75;;;11.70;99.90;;;;;;5094566;28;20088;-69
2021/12/01 07:48:47;;;;;;;14.23;2.78;;;11.70;99.90;;;;;;5093824;28;20031;-75
2021/12/01 07:51:15;;;;;;;9.80;1.80;;;11.80;99.90;;;;;;5091173;28;20024;-74
2021/12/01 07:53:48;;;;;;;12.23;2.08;;;11.80;99.90;;;;;;5093782;28;20406;-73
2021/12/01 07:56:15;;;;;;;15.57;2.00;;;11.70;99.90;;;;;;5075534;28;20020;-73
2021/12/01 07:58:41;;;;;;;13.23;2.13;;;11.70;99.90;;;;;;5093557;28;20108;-75
2021/12/01 08:01:07;;;;;;;11.32;2.80;;;11.70;99.90;;;;;;5094272;28;20020;-75
2021/12/01 08:03:34;;;;;;;17.27;2.00;;;11.80;99.90;;;;;;5094128;28;20035;-75
2021/12/01 08:06:00;;;;;;;9.68;1.75;;;11.90;99.90;;;;;;5094028;28;20078;-74
2021/12/01 08:08:26;;;;;;;13.03;1.60;;;12.00;99.90;;;;;;5094193;28;20062;-74
2021/12/01 08:10:52;;;;;;;13.53;2.20;;;12.10;99.90;;;;;;5093629;28;20061;-72
2021/12/01 08:13:18;;;;;;;9.50;2.00;;;12.30;99.90;;;;;;5093574;28;20027;-74
2021/12/01 08:15:45;;;;;;;12.32;2.35;;;12.40;99.90;;;;;;5093917;28;20020;-74
2021/12/01 08:18:13;;;;;;;19.65;2.55;;;12.60;99.90;;;;;;5093320;28;20031;-75
2021/12/01 08:20:39;;;;;;;13.82;2.13;;;12.80;99.90;;;;;;5092117;28;20058;-73
2021/12/01 08:23:05;;;;;;;11.73;1.90;;;13.00;99.90;;;;;;5093365;28;20028;-74
2021/12/01 08:25:31;;;;;;;8.97;1.80;;;13.20;99.90;;;;;;5093219;28;20034;-73
2021/12/01 08:28:00;;;;;;;9.25;1.85;;;13.30;99.90;;;;;;5093195;28;20656;-74
2021/12/01 08:30:30;;;;;;;11.98;2.15;;;13.50;99.90;;;;;;5092045;28;20032;-75
2021/12/01 08:32:58;;;;;;;10.80;2.30;;;13.70;99.90;;;;;;5092872;28;20510;-74
2021/12/01 08:35:25;;;;;;;9.60;2.10;;;14.00;99.90;;;;;;5092619;28;20067;-74
2021/12/01 08:37:52;;;;;;;11.90;2.03;;;14.00;99.90;;;;;;5092828;28;20031;-73
2021/12/01 08:40:19;;;;;;;10.88;2.67;;;14.10;99.90;;;;;;5092766;28;20469;-73
2021/12/01 08:42:46;;;;;;;12.35;3.58;;;14.20;99.90;;;;;;5091902;28;20044;-73
2021/12/01 08:45:15;;;;;;;13.35;2.47;;;14.30;99.90;;;;;;5091172;28;20040;-73
2021/12/01 08:47:42;;;;;;;15.35;2.58;;;14.30;99.90;;;;;;5091325;28;20036;-73
2021/12/01 08:50:12;;;;;;;10.68;2.85;;;14.40;99.90;;;;;;5091732;28;20131;-73
2021/12/01 08:52:40;;;;;;;8.80;1.98;;;14.60;99.90;;;;;;5091317;28;20036;-73
2021/12/01 08:55:07;;;;;;;11.20;1.70;;;14.60;99.90;;;;;;5090267;28;20024;-74
2021/12/01 08:57:33;;;;;;;10.40;1.73;;;14.80;99.50;;;;;;5091107;28;20052;-74
2021/12/01 08:59:59;;;;;;;9.00;1.50;;;14.80;99.30;;;;;;5091507;28;20051;-73
2021/12/01 09:02:25;;;;;;;11.13;1.70;;;14.80;99.20;;;;;;5091433;28;20150;-73
2021/12/01 09:04:52;;;;;;;15.17;2.77;;;14.80;99.70;;;;;;5091289;28;20297;-74
2021/12/01 09:07:19;;;;;;;11.02;2.90;;;14.80;99.60;;;;;;5091718;28;20119;-73
2021/12/01 09:09:46;;;;;;;12.10;3.10;;;14.80;99.90;;;;;;5089953;28;20154;-73
2021/12/01 09:12:18;;;;;;;13.73;4.13;;;14.80;99.90;;;;;;5091277;28;20502;-72
2021/12/01 09:14:44;;;;;;;14.13;3.42;;;14.70;99.90;;;;;;5091229;28;20052;-73
2021/12/01 09:17:12;;;;;;;12.27;3.65;;;14.60;99.90;;;;;;5092044;28;20013;-71
2021/12/01 09:19:39;;;;;;;12.38;4.18;;;14.60;99.90;;;;;;5092220;28;20042;-72
2021/12/01 09:22:06;;;;;;;14.80;3.63;;;14.60;99.90;;;;;;5092185;28;20480;-73
2021/12/01 09:24:32;;;;;;;23.23;3.47;;;14.70;99.90;;;;;;5091955;28;20032;-74
2021/12/01 09:26:58;;;;;;;14.10;4.47;;;14.80;99.90;;;;;;5092455;28;20484;-74
2021/12/01 09:29:27;;;;;;;13.10;4.53;;;14.80;99.90;;;;;;5092498;28;20032;-74
2021/12/01 09:31:58;;;;;;;15.60;6.53;;;14.90;99.90;;;;;;5090479;28;20046;-73
2021/12/01 09:34:24;;;;;;;24.25;10.38;;;15.00;99.90;;;;;;5092492;28;20110;-74
2021/12/01 09:36:56;;;;;;;26.40;13.70;;;15.00;99.90;;;;;;5092510;28;20039;-74
2021/12/01 09:39:25;;;;;;;39.42;16.48;;;15.00;99.90;;;;;;5092300;28;20028;-73
2021/12/01 09:41:52;;;;;;;40.33;21.73;;;14.90;99.90;;;;;;5091956;28;20454;-72
2021/12/01 09:44:19;;;;;;;39.97;21.15;;;14.70;99.90;;;;;;5091982;28;20411;-74
2021/12/01 09:46:51;;;;;;;47.80;26.83;;;14.80;99.90;;;;;;5092280;28;20020;-74
2021/12/01 09:49:18;;;;;;;49.75;24.88;;;14.70;99.90;;;;;;5091879;28;20442;-74
2021/12/01 09:51:46;;;;;;;25.25;11.57;;;14.80;99.90;;;;;;5091500;28;20020;-74
2021/12/01 09:54:12;;;;;;;20.60;9.38;;;14.80;99.90;;;;;;5092126;28;20024;-74
2021/12/01 09:56:38;;;;;;;17.55;5.20;;;15.00;99.90;;;;;;5092119;28;20416;-74
2021/12/01 09:59:04;;;;;;;14.83;2.87;;;15.20;99.50;;;;;;5091444;28;20028;-74
2021/12/01 10:01:31;;;;;;;8.97;2.00;;;15.10;99.00;;;;;;5091803;28;20266;-71
2021/12/01 10:03:59;;;;;;;11.68;2.60;;;15.20;99.10;;;;;;5091604;28;20092;-72
2021/12/01 10:06:27;;;;;;;9.23;1.90;;;15.60;98.90;;;;;;5091218;28;20033;-73
2021/12/01 10:09:04;;;;;;;11.05;2.35;;;15.70;97.70;;;;;;5091139;28;20032;-73
2021/12/01 10:11:39;;;;;;;9.02;1.85;;;16.00;97.80;;;;;;5089749;28;20086;-73
2021/12/01 10:14:26;;;;;;;12.60;2.60;;;16.40;97.50;;;;;;5092382;28;20027;-73
2021/12/01 10:16:54;;;;;;;13.65;2.28;;;16.70;97.10;;;;;;5095523;28;20028;-72
2021/12/01 10:19:22;;;;;;;10.55;2.60;;;17.00;96.90;;;;;;5095702;28;20012;-73
2021/12/01 10:21:51;;;;;;;11.13;1.95;;;17.10;97.00;;;;;;5095182;28;20193;-72
2021/12/01 10:24:23;;;;;;;11.98;2.08;;;17.20;96.30;;;;;;5095251;28;20035;-73
2021/12/01 10:27:03;;;;;;;13.95;2.13;;;17.30;96.00;;;;;;5093750;28;20028;-71
2021/12/01 10:29:50;;;;;;;15.63;2.85;;;17.30;96.30;;;;;;5095217;28;20039;-73
2021/12/01 10:32:20;;;;;;;13.38;2.90;;;17.20;96.30;;;;;;5094657;28;20053;-72
2021/12/01 10:34:53;;;;;;;13.13;2.15;;;17.30;96.30;;;;;;5093293;28;20039;-73
2021/12/01 10:37:29;;;;;;;8.63;2.20;;;17.30;96.20;;;;;;5094881;28;20135;-73
2021/12/01 10:40:24;;;;;;;9.98;1.77;;;17.50;96.00;;;;;;5095078;28;20021;-72
2021/12/01 10:42:58;;;;;;;19.85;2.83;;;17.30;95.80;;;;;;5092963;28;20172;-73
2021/12/01 10:45:31;;;;;;;13.43;2.28;;;17.30;96.30;;;;;;5095098;28;20043;-72
2021/12/01 10:48:26;;;;;;;10.13;1.75;;;17.30;96.20;;;;;;5094538;28;20306;-75
2021/12/01 10:50:54;;;;;;;16.23;2.42;;;17.40;96.00;;;;;;5094084;28;20503;-75
2021/12/01 10:53:23;;;;;;;16.98;2.50;;;17.20;95.90;;;;;;5094935;28;20513;-72
2021/12/01 10:55:53;;;;;;;11.57;2.60;;;17.30;96.20;;;;;;5094538;28;20035;-72
2021/12/01 10:58:19;;;;;;;20.05;3.13;;;17.50;96.00;;;;;;5093125;28;20036;-73
2021/12/01 11:00:48;;;;;;;15.43;2.53;;;17.40;96.20;;;;;;5094551;28;20476;-73
2021/12/01 11:03:18;;;;;;;13.73;2.25;;;17.30;96.00;;;;;;5093774;28;20427;-75
2021/12/01 11:06:10;;;;;;;16.30;2.22;;;17.30;96.00;;;;;;5094454;28;20029;-76
2021/12/01 11:08:55;;;;;;;10.48;2.15;;;17.50;95.50;;;;;;5094639;28;20487;-74
2021/12/01 11:11:38;;;;;;;12.43;2.03;;;17.50;95.80;;;;;;5094440;28;20028;-74
2021/12/01 11:14:12;;;;;;;16.98;2.10;;;17.40;95.90;;;;;;5094688;28;20032;-72
2021/12/01 11:16:42;;;;;;;11.52;2.22;;;17.40;96.20;;;;;;5094625;28;20107;-73
2021/12/01 11:19:09;;;;;;;11.02;2.63;;;17.40;96.40;;;;;;5093235;28;20385;-71
2021/12/01 11:21:37;;;;;;;18.35;3.40;;;17.50;96.40;;;;;;5093505;28;20043;-71
2021/12/01 11:24:12;;;;;;;15.18;3.17;;;17.70;96.30;;;;;;5094255;28;20024;-74
2021/12/01 11:26:45;;;;;;;10.55;2.55;;;17.70;96.00;;;;;;5091577;28;20463;-74
2021/12/01 11:29:16;;;;;;;14.45;3.05;;;17.80;96.20;;;;;;5094138;28;20028;-71
2021/12/01 11:31:46;;;;;;;15.90;4.47;;;17.70;95.70;;;;;;5093399;28;20067;-72
2021/12/01 11:34:18;;;;;;;8.80;2.38;;;17.50;96.60;;;;;;5092997;28;20476;-73
2021/12/01 11:36:49;;;;;;;11.60;2.45;;;17.60;96.70;;;;;;5092336;28;20391;-72
2021/12/01 11:39:26;;;;;;;11.13;2.65;;;17.70;96.40;;;;;;5093566;28;20030;-72
2021/12/01 11:41:55;;;;;;;10.20;2.20;;;17.70;96.60;;;;;;5093845;28;20097;-72
2021/12/01 11:44:25;;;;;;;11.02;2.38;;;17.70;95.90;;;;;;5093421;28;20035;-72
2021/12/01 11:46:57;;;;;;;11.02;2.42;;;17.60;97.00;;;;;;5093696;28;20490;-71
2021/12/01 11:49:28;;;;;;;13.95;3.03;;;17.60;96.80;;;;;;5093631;28;20024;-73
2021/12/01 11:52:04;;;;;;;12.52;2.25;;;17.70;96.20;;;;;;5093539;28;20024;-73
2021/12/01 11:54:33;;;;;;;18.48;2.78;;;17.60;96.70;;;;;;5093967;28;20067;-73
2021/12/01 11:57:07;;;;;;;13.13;2.30;;;17.50;96.60;;;;;;5094097;28;20046;-72
2021/12/01 11:59:38;;;;;;;11.82;2.25;;;17.50;97.00;;;;;;5093825;28;20106;-73
2021/12/01 12:02:23;;;;;;;9.65;2.05;;;17.30;97.30;;;;;;5092793;28;20085;-73
2021/12/01 12:04:54;;;;;;;14.25;2.20;;;17.30;97.60;;;;;;5092852;28;20070;-72
2021/12/01 12:07:30;;;;;;;17.50;2.30;;;17.30;97.40;;;;;;5092233;28;20439;-72
2021/12/01 12:10:15;;;;;;;11.07;2.00;;;17.30;97.80;;;;;;5093007;28;20107;-72
2021/12/01 12:13:09;;;;;;;13.33;3.00;;;17.60;97.50;;;;;;5092431;28;20115;-74
2021/12/01 12:15:37;;;;;;;17.50;3.10;;;17.60;97.30;;;;;;5089309;28;20111;-74
2021/12/01 12:18:07;;;;;;;21.88;4.32;;;17.80;97.00;;;;;;5092166;28;20494;-74
2021/12/01 12:20:40;;;;;;;17.00;3.13;;;17.70;97.10;;;;;;5093047;28;20047;-72
2021/12/01 12:23:10;;;;;;;10.63;2.05;;;17.30;97.60;;;;;;5092297;28;20040;-73
2021/12/01 12:25:54;;;;;;;9.77;2.53;;;17.20;97.70;;;;;;5092607;28;20043;-72
2021/12/01 12:28:21;;;;;;;14.85;2.08;;;17.20;98.20;;;;;;5092770;28;20094;-72
2021/12/01 12:30:49;;;;;;;6.88;1.70;;;17.10;98.10;;;;;;5093148;28;20024;-72
2021/12/01 12:33:26;;;;;;;11.70;2.38;;;17.10;98.30;;;;;;5092925;28;20059;-72
2021/12/01 12:36:01;;;;;;;11.82;2.33;;;16.90;98.60;;;;;;5093312;28;20063;-72
2021/12/01 12:38:28;;;;;;;11.52;1.90;;;16.90;98.90;;;;;;5090861;28;20073;-73
2021/12/01 12:41:10;;;;;;;11.98;1.90;;;16.90;99.10;;;;;;5092664;28;20051;-73
2021/12/01 12:43:40;;;;;;;8.52;2.00;;;16.70;99.90;;;;;;5092975;28;20024;-73
2021/12/01 12:46:15;;;;;;;16.33;2.35;;;16.90;99.60;;;;;;5092859;28;20085;-73
2021/12/01 12:48:52;;;;;;;18.80;2.30;;;16.90;99.60;;;;;;5093069;28;20518;-75
2021/12/01 12:51:31;;;;;;;11.85;2.60;;;16.80;99.40;;;;;;5093076;28;20027;-74
2021/12/01 12:54:00;;;;;;;16.52;2.33;;;16.80;99.20;;;;;;5092988;28;20110;-73
2021/12/01 12:56:29;;;;;;;13.90;2.22;;;16.70;99.60;;;;;;5093036;28;20059;-73
2021/12/01 12:59:31;;;;;;;12.80;1.80;;;16.50;99.90;;;;;;5092957;28;20139;-74
2021/12/01 13:02:10;;;;;;;12.27;2.55;;;16.50;99.90;;;;;;5092854;28;20443;-73